sensor_id;sensor_type;location;lat;lon;timestamp;P1;durP1;ratioP1;P2;durP2;ratioP2
19111;SDS011;9688;51.906;8.376;2022-09-09T00:00:14;3.90;;;1.30;;
19111;SDS011;9688;51.906;8.376;2022-09-09T00:03:22;4.27;;;1.00;;
19111;SDS011;9688;51.906;8.376;2022-09-09T00:06:32;2.13;;;1.23;;
19111;SDS011;9688;51.906;8.376;2022-09-09T00:09:40;3.30;;;1.40;;
19111;SDS011;9688;51.906;8.376;2022-09-09T00:12:53;2.20;;;1.30;;
19111;SDS011;9688;51.906;8.376;2022-09-09T00:16:09;4.73;;;1.80;;
19111;SDS011;9688;51.906;8.376;2022-09-09T00:19:20;3.27;;;1.40;;
19111;SDS011;9688;51.906;8.376;2022-09-09T00:22:30;5.80;;;1.50;;
19111;SDS011;9688;51.906;8.376;2022-09-09T00:25:37;5.90;;;1.83;;
19111;SDS011;9688;51.906;8.376;2022-09-09T00:28:50;2.30;;;1.33;;
19111;SDS011;9688;51.906;8.376;2022-09-09T00:32:05;4.73;;;1.63;;
19111;SDS011;9688;51.906;8.376;2022-09-09T00:35:18;7.53;;;1.60;;
19111;SDS011;9688;51.906;8.376;2022-09-09T00:38:31;3.03;;;1.50;;
19111;SDS011;9688;51.906;8.376;2022-09-09T00:41:47;2.83;;;2.17;;
19111;SDS011;9688;51.906;8.376;2022-09-09T00:45:01;1.87;;;1.43;;
19111;SDS011;9688;51.906;8.376;2022-09-09T00:48:16;6.30;;;1.73;;
19111;SDS011;9688;51.906;8.376;2022-09-09T00:51:24;2.53;;;1.30;;
19111;SDS011;9688;51.906;8.376;2022-09-09T00:54:40;2.67;;;1.50;;
19111;SDS011;9688;51.906;8.376;2022-09-09T00:57:52;2.70;;;1.30;;
19111;SDS011;9688;51.906;8.376;2022-09-09T01:00:57;2.90;;;1.27;;
19111;SDS011;9688;51.906;8.376;2022-09-09T01:04:09;4.33;;;1.43;;
19111;SDS011;9688;51.906;8.376;2022-09-09T01:07:20;4.13;;;1.40;;
19111;SDS011;9688;51.906;8.376;2022-09-09T01:10:29;2.50;;;1.60;;
19111;SDS011;9688;51.906;8.376;2022-09-09T01:13:40;3.63;;;1.43;;
19111;SDS011;9688;51.906;8.376;2022-09-09T01:16:49;3.73;;;1.50;;
19111;SDS011;9688;51.906;8.376;2022-09-09T01:20:03;5.53;;;2.00;;
19111;SDS011;9688;51.906;8.376;2022-09-09T01:23:25;2.60;;;1.40;;
19111;SDS011;9688;51.906;8.376;2022-09-09T01:26:44;2.63;;;1.40;;
19111;SDS011;9688;51.906;8.376;2022-09-09T01:37:39;2.93;;;1.77;;
19111;SDS011;9688;51.906;8.376;2022-09-09T01:40:44;2.93;;;1.27;;
19111;SDS011;9688;51.906;8.376;2022-09-09T01:43:52;3.70;;;1.57;;
19111;SDS011;9688;51.906;8.376;2022-09-09T01:46:58;2.10;;;1.53;;
19111;SDS011;9688;51.906;8.376;2022-09-09T01:50:04;3.37;;;2.00;;
19111;SDS011;9688;51.906;8.376;2022-09-09T01:53:11;7.90;;;1.77;;
19111;SDS011;9688;51.906;8.376;2022-09-09T01:56:21;2.57;;;1.17;;
19111;SDS011;9688;51.906;8.376;2022-09-09T01:59:47;2.60;;;1.37;;
19111;SDS011;9688;51.906;8.376;2022-09-09T02:03:00;2.70;;;1.30;;
19111;SDS011;9688;51.906;8.376;2022-09-09T02:06:12;3.13;;;1.37;;
19111;SDS011;9688;51.906;8.376;2022-09-09T02:09:28;4.30;;;1.20;;
19111;SDS011;9688;51.906;8.376;2022-09-09T02:12:34;2.63;;;1.30;;
19111;SDS011;9688;51.906;8.376;2022-09-09T02:15:45;1.30;;;1.20;;
19111;SDS011;9688;51.906;8.376;2022-09-09T02:18:57;3.63;;;1.50;;
19111;SDS011;9688;51.906;8.376;2022-09-09T02:22:05;2.00;;;1.30;;
19111;SDS011;9688;51.906;8.376;2022-09-09T02:25:10;2.17;;;1.50;;
19111;SDS011;9688;51.906;8.376;2022-09-09T02:28:17;1.50;;;1.40;;
19111;SDS011;9688;51.906;8.376;2022-09-09T02:31:26;2.40;;;1.60;;
19111;SDS011;9688;51.906;8.376;2022-09-09T02:34:32;4.57;;;1.63;;
19111;SDS011;9688;51.906;8.376;2022-09-09T02:37:42;2.13;;;1.50;;
19111;SDS011;9688;51.906;8.376;2022-09-09T02:40:49;1.77;;;1.50;;
19111;SDS011;9688;51.906;8.376;2022-09-09T02:43:54;2.97;;;1.50;;
19111;SDS011;9688;51.906;8.376;2022-09-09T02:50:32;4.03;;;1.80;;
19111;SDS011;9688;51.906;8.376;2022-09-09T02:53:39;3.47;;;1.57;;
19111;SDS011;9688;51.906;8.376;2022-09-09T02:56:53;1.73;;;1.63;;
19111;SDS011;9688;51.906;8.376;2022-09-09T02:59:58;5.73;;;1.70;;
19111;SDS011;9688;51.906;8.376;2022-09-09T03:03:07;3.70;;;1.83;;
19111;SDS011;9688;51.906;8.376;2022-09-09T03:06:12;6.53;;;2.13;;
19111;SDS011;9688;51.906;8.376;2022-09-09T03:09:17;4.43;;;1.93;;
19111;SDS011;9688;51.906;8.376;2022-09-09T03:12:21;5.80;;;2.43;;
19111;SDS011;9688;51.906;8.376;2022-09-09T03:15:26;3.87;;;1.80;;
19111;SDS011;9688;51.906;8.376;2022-09-09T03:18:35;3.43;;;1.80;;
19111;SDS011;9688;51.906;8.376;2022-09-09T03:21:39;4.83;;;1.63;;
19111;SDS011;9688;51.906;8.376;2022-09-09T03:24:44;3.33;;;1.67;;
19111;SDS011;9688;51.906;8.376;2022-09-09T03:27:49;6.00;;;2.10;;
19111;SDS011;9688;51.906;8.376;2022-09-09T03:30:57;3.87;;;1.90;;
19111;SDS011;9688;51.906;8.376;2022-09-09T03:34:04;6.60;;;1.97;;
19111;SDS011;9688;51.906;8.376;2022-09-09T03:37:08;5.77;;;2.20;;
19111;SDS011;9688;51.906;8.376;2022-09-09T03:40:13;7.97;;;2.27;;
19111;SDS011;9688;51.906;8.376;2022-09-09T03:43:18;5.90;;;1.83;;
19111;SDS011;9688;51.906;8.376;2022-09-09T03:46:24;3.47;;;1.80;;
19111;SDS011;9688;51.906;8.376;2022-09-09T03:49:30;2.77;;;1.97;;
19111;SDS011;9688;51.906;8.376;2022-09-09T03:52:35;2.90;;;2.00;;
19111;SDS011;9688;51.906;8.376;2022-09-09T03:55:43;2.40;;;2.20;;
19111;SDS011;9688;51.906;8.376;2022-09-09T03:58:48;4.57;;;2.17;;
19111;SDS011;9688;51.906;8.376;2022-09-09T04:01:52;4.70;;;2.07;;
19111;SDS011;9688;51.906;8.376;2022-09-09T04:04:58;6.20;;;2.20;;
19111;SDS011;9688;51.906;8.376;2022-09-09T04:08:03;2.53;;;1.90;;
19111;SDS011;9688;51.906;8.376;2022-09-09T04:11:07;6.43;;;2.53;;
19111;SDS011;9688;51.906;8.376;2022-09-09T04:14:12;5.67;;;2.50;;
19111;SDS011;9688;51.906;8.376;2022-09-09T04:17:16;2.90;;;2.00;;
19111;SDS011;9688;51.906;8.376;2022-09-09T04:20:22;5.17;;;1.90;;
19111;SDS011;9688;51.906;8.376;2022-09-09T04:23:28;4.40;;;1.93;;
19111;SDS011;9688;51.906;8.376;2022-09-09T04:26:32;3.40;;;1.97;;
19111;SDS011;9688;51.906;8.376;2022-09-09T04:29:37;6.70;;;2.50;;
19111;SDS011;9688;51.906;8.376;2022-09-09T04:32:41;2.97;;;2.10;;
19111;SDS011;9688;51.906;8.376;2022-09-09T04:35:47;5.33;;;2.30;;
19111;SDS011;9688;51.906;8.376;2022-09-09T04:38:53;4.07;;;2.13;;
19111;SDS011;9688;51.906;8.376;2022-09-09T04:41:57;5.20;;;2.60;;
19111;SDS011;9688;51.906;8.376;2022-09-09T04:45:01;3.93;;;2.03;;
19111;SDS011;9688;51.906;8.376;2022-09-09T04:48:07;4.23;;;2.33;;
19111;SDS011;9688;51.906;8.376;2022-09-09T04:51:14;4.63;;;2.03;;
19111;SDS011;9688;51.906;8.376;2022-09-09T04:54:19;4.57;;;2.00;;
19111;SDS011;9688;51.906;8.376;2022-09-09T04:57:24;4.37;;;2.37;;
19111;SDS011;9688;51.906;8.376;2022-09-09T05:00:28;4.23;;;2.23;;
19111;SDS011;9688;51.906;8.376;2022-09-09T05:03:32;4.20;;;2.10;;
19111;SDS011;9688;51.906;8.376;2022-09-09T05:06:38;3.47;;;2.37;;
19111;SDS011;9688;51.906;8.376;2022-09-09T05:09:43;3.60;;;2.20;;
19111;SDS011;9688;51.906;8.376;2022-09-09T05:12:51;3.23;;;2.30;;
19111;SDS011;9688;51.906;8.376;2022-09-09T05:15:57;5.03;;;2.70;;
19111;SDS011;9688;51.906;8.376;2022-09-09T05:19:02;5.77;;;2.53;;
19111;SDS011;9688;51.906;8.376;2022-09-09T05:22:08;4.93;;;2.47;;
19111;SDS011;9688;51.906;8.376;2022-09-09T05:25:12;5.73;;;2.50;;
19111;SDS011;9688;51.906;8.376;2022-09-09T05:28:17;5.57;;;2.50;;
19111;SDS011;9688;51.906;8.376;2022-09-09T05:31:22;3.00;;;2.30;;
19111;SDS011;9688;51.906;8.376;2022-09-09T05:34:28;7.23;;;2.63;;
19111;SDS011;9688;51.906;8.376;2022-09-09T05:37:34;5.00;;;2.67;;
19111;SDS011;9688;51.906;8.376;2022-09-09T05:40:38;5.23;;;2.60;;
19111;SDS011;9688;51.906;8.376;2022-09-09T05:43:45;9.87;;;3.03;;
19111;SDS011;9688;51.906;8.376;2022-09-09T05:46:51;7.87;;;2.30;;
19111;SDS011;9688;51.906;8.376;2022-09-09T05:49:57;8.07;;;2.30;;
19111;SDS011;9688;51.906;8.376;2022-09-09T05:53:04;3.97;;;2.30;;
19111;SDS011;9688;51.906;8.376;2022-09-09T05:56:10;5.67;;;2.50;;
19111;SDS011;9688;51.906;8.376;2022-09-09T05:59:18;4.83;;;2.43;;
19111;SDS011;9688;51.906;8.376;2022-09-09T06:02:23;6.77;;;2.43;;
19111;SDS011;9688;51.906;8.376;2022-09-09T06:05:27;2.47;;;2.13;;
19111;SDS011;9688;51.906;8.376;2022-09-09T06:08:34;5.97;;;2.63;;
19111;SDS011;9688;51.906;8.376;2022-09-09T06:11:40;7.27;;;2.33;;
19111;SDS011;9688;51.906;8.376;2022-09-09T06:14:45;8.53;;;2.27;;
19111;SDS011;9688;51.906;8.376;2022-09-09T06:17:53;10.83;;;2.67;;
19111;SDS011;9688;51.906;8.376;2022-09-09T06:20:59;5.60;;;2.10;;
19111;SDS011;9688;51.906;8.376;2022-09-09T06:24:07;6.03;;;2.20;;
19111;SDS011;9688;51.906;8.376;2022-09-09T06:27:12;3.20;;;2.00;;
19111;SDS011;9688;51.906;8.376;2022-09-09T06:30:17;7.17;;;2.17;;
19111;SDS011;9688;51.906;8.376;2022-09-09T06:33:22;5.23;;;2.30;;
19111;SDS011;9688;51.906;8.376;2022-09-09T06:36:26;4.00;;;2.30;;
19111;SDS011;9688;51.906;8.376;2022-09-09T06:39:36;3.57;;;1.87;;
19111;SDS011;9688;51.906;8.376;2022-09-09T06:42:55;6.17;;;2.10;;
19111;SDS011;9688;51.906;8.376;2022-09-09T06:46:04;5.30;;;1.83;;
19111;SDS011;9688;51.906;8.376;2022-09-09T06:49:10;4.53;;;2.00;;
19111;SDS011;9688;51.906;8.376;2022-09-09T06:52:16;2.40;;;2.20;;
19111;SDS011;9688;51.906;8.376;2022-09-09T06:55:25;4.30;;;1.83;;
19111;SDS011;9688;51.906;8.376;2022-09-09T06:58:33;7.37;;;2.00;;
19111;SDS011;9688;51.906;8.376;2022-09-09T07:01:40;4.63;;;1.80;;
19111;SDS011;9688;51.906;8.376;2022-09-09T07:04:46;4.87;;;1.80;;
19111;SDS011;9688;51.906;8.376;2022-09-09T07:07:54;5.93;;;1.80;;
19111;SDS011;9688;51.906;8.376;2022-09-09T07:11:02;4.80;;;2.17;;
19111;SDS011;9688;51.906;8.376;2022-09-09T07:14:08;4.00;;;1.80;;
19111;SDS011;9688;51.906;8.376;2022-09-09T07:17:15;4.87;;;2.13;;
19111;SDS011;9688;51.906;8.376;2022-09-09T07:20:20;3.83;;;2.03;;
19111;SDS011;9688;51.906;8.376;2022-09-09T07:23:25;3.97;;;1.77;;
19111;SDS011;9688;51.906;8.376;2022-09-09T07:26:31;6.13;;;1.83;;
19111;SDS011;9688;51.906;8.376;2022-09-09T07:29:36;5.77;;;1.83;;
19111;SDS011;9688;51.906;8.376;2022-09-09T07:32:43;2.67;;;1.63;;
19111;SDS011;9688;51.906;8.376;2022-09-09T07:35:51;6.73;;;1.60;;
19111;SDS011;9688;51.906;8.376;2022-09-09T07:38:58;6.43;;;1.60;;
19111;SDS011;9688;51.906;8.376;2022-09-09T07:42:07;8.60;;;2.50;;
19111;SDS011;9688;51.906;8.376;2022-09-09T07:45:12;6.30;;;1.80;;
19111;SDS011;9688;51.906;8.376;2022-09-09T07:48:17;4.60;;;1.90;;
19111;SDS011;9688;51.906;8.376;2022-09-09T07:51:23;5.47;;;1.80;;
19111;SDS011;9688;51.906;8.376;2022-09-09T07:54:29;4.33;;;1.60;;
19111;SDS011;9688;51.906;8.376;2022-09-09T07:57:36;4.53;;;1.83;;
19111;SDS011;9688;51.906;8.376;2022-09-09T08:00:42;5.03;;;1.77;;
19111;SDS011;9688;51.906;8.376;2022-09-09T08:03:51;4.50;;;1.80;;
19111;SDS011;9688;51.906;8.376;2022-09-09T08:06:59;6.93;;;1.70;;
19111;SDS011;9688;51.906;8.376;2022-09-09T08:10:06;4.80;;;1.80;;
19111;SDS011;9688;51.906;8.376;2022-09-09T08:13:12;3.87;;;1.60;;
19111;SDS011;9688;51.906;8.376;2022-09-09T08:16:21;3.10;;;1.70;;
19111;SDS011;9688;51.906;8.376;2022-09-09T08:19:26;5.57;;;1.57;;
19111;SDS011;9688;51.906;8.376;2022-09-09T08:22:32;5.27;;;1.80;;
19111;SDS011;9688;51.906;8.376;2022-09-09T08:25:38;8.47;;;1.60;;
19111;SDS011;9688;51.906;8.376;2022-09-09T08:28:45;3.80;;;1.37;;
19111;SDS011;9688;51.906;8.376;2022-09-09T08:31:51;3.77;;;1.43;;
19111;SDS011;9688;51.906;8.376;2022-09-09T08:35:00;5.37;;;1.77;;
19111;SDS011;9688;51.906;8.376;2022-09-09T08:38:06;4.77;;;1.47;;
19111;SDS011;9688;51.906;8.376;2022-09-09T08:41:28;4.27;;;1.27;;
19111;SDS011;9688;51.906;8.376;2022-09-09T08:44:45;3.80;;;1.50;;
19111;SDS011;9688;51.906;8.376;2022-09-09T08:48:05;3.37;;;1.50;;
19111;SDS011;9688;51.906;8.376;2022-09-09T08:51:21;4.33;;;1.43;;
19111;SDS011;9688;51.906;8.376;2022-09-09T08:54:31;3.77;;;1.43;;
19111;SDS011;9688;51.906;8.376;2022-09-09T08:57:39;2.53;;;1.23;;
19111;SDS011;9688;51.906;8.376;2022-09-09T09:00:51;2.27;;;1.40;;
19111;SDS011;9688;51.906;8.376;2022-09-09T09:04:05;4.33;;;1.77;;
19111;SDS011;9688;51.906;8.376;2022-09-09T09:07:20;2.80;;;1.20;;
19111;SDS011;9688;51.906;8.376;2022-09-09T09:10:39;3.90;;;1.13;;
19111;SDS011;9688;51.906;8.376;2022-09-09T09:13:52;3.00;;;1.30;;
19111;SDS011;9688;51.906;8.376;2022-09-09T09:17:09;1.53;;;1.00;;
19111;SDS011;9688;51.906;8.376;2022-09-09T09:20:20;5.87;;;1.40;;
19111;SDS011;9688;51.906;8.376;2022-09-09T09:23:38;3.63;;;1.57;;
19111;SDS011;9688;51.906;8.376;2022-09-09T09:26:47;3.90;;;1.40;;
19111;SDS011;9688;51.906;8.376;2022-09-09T09:29:54;3.77;;;1.87;;
19111;SDS011;9688;51.906;8.376;2022-09-09T09:33:05;8.30;;;1.17;;
19111;SDS011;9688;51.906;8.376;2022-09-09T09:36:16;6.27;;;1.57;;
19111;SDS011;9688;51.906;8.376;2022-09-09T09:39:23;7.77;;;1.40;;
19111;SDS011;9688;51.906;8.376;2022-09-09T09:42:29;2.63;;;1.40;;
19111;SDS011;9688;51.906;8.376;2022-09-09T09:45:35;9.27;;;1.97;;
19111;SDS011;9688;51.906;8.376;2022-09-09T09:48:57;3.97;;;1.80;;
19111;SDS011;9688;51.906;8.376;2022-09-09T09:52:03;4.77;;;1.67;;
19111;SDS011;9688;51.906;8.376;2022-09-09T09:55:12;4.37;;;1.13;;
19111;SDS011;9688;51.906;8.376;2022-09-09T09:58:20;3.13;;;1.40;;
19111;SDS011;9688;51.906;8.376;2022-09-09T10:01:26;4.37;;;1.17;;
19111;SDS011;9688;51.906;8.376;2022-09-09T10:04:33;5.23;;;1.27;;
19111;SDS011;9688;51.906;8.376;2022-09-09T10:07:38;3.87;;;1.60;;
19111;SDS011;9688;51.906;8.376;2022-09-09T10:14:22;5.37;;;1.60;;
19111;SDS011;9688;51.906;8.376;2022-09-09T10:17:36;6.73;;;1.93;;
19111;SDS011;9688;51.906;8.376;2022-09-09T10:20:54;7.87;;;1.40;;
19111;SDS011;9688;51.906;8.376;2022-09-09T10:24:18;7.37;;;1.57;;
19111;SDS011;9688;51.906;8.376;2022-09-09T10:27:51;8.93;;;1.43;;
19111;SDS011;9688;51.906;8.376;2022-09-09T10:31:22;5.50;;;1.80;;
19111;SDS011;9688;51.906;8.376;2022-09-09T10:34:41;5.77;;;2.00;;
19111;SDS011;9688;51.906;8.376;2022-09-09T10:38:05;5.73;;;2.60;;
19111;SDS011;9688;51.906;8.376;2022-09-09T10:41:18;3.70;;;1.70;;
19111;SDS011;9688;51.906;8.376;2022-09-09T10:44:39;3.40;;;1.33;;
19111;SDS011;9688;51.906;8.376;2022-09-09T10:48:02;4.83;;;1.70;;
19111;SDS011;9688;51.906;8.376;2022-09-09T10:51:23;1.40;;;1.30;;
19111;SDS011;9688;51.906;8.376;2022-09-09T10:54:42;3.33;;;1.60;;
19111;SDS011;9688;51.906;8.376;2022-09-09T10:57:58;4.40;;;1.60;;
19111;SDS011;9688;51.906;8.376;2022-09-09T11:01:09;3.93;;;1.60;;
19111;SDS011;9688;51.906;8.376;2022-09-09T11:04:21;2.93;;;1.90;;
19111;SDS011;9688;51.906;8.376;2022-09-09T11:07:29;4.87;;;1.70;;
19111;SDS011;9688;51.906;8.376;2022-09-09T11:10:43;6.53;;;1.57;;
19111;SDS011;9688;51.906;8.376;2022-09-09T11:13:55;5.33;;;1.47;;
19111;SDS011;9688;51.906;8.376;2022-09-09T11:17:06;9.60;;;1.53;;
19111;SDS011;9688;51.906;8.376;2022-09-09T11:20:17;3.33;;;1.30;;
19111;SDS011;9688;51.906;8.376;2022-09-09T11:23:23;5.57;;;1.77;;
19111;SDS011;9688;51.906;8.376;2022-09-09T11:26:33;2.27;;;1.10;;
19111;SDS011;9688;51.906;8.376;2022-09-09T11:33:30;1.93;;;1.57;;
19111;SDS011;9688;51.906;8.376;2022-09-09T11:36:49;1.43;;;1.10;;
19111;SDS011;9688;51.906;8.376;2022-09-09T11:40:17;4.37;;;1.33;;
19111;SDS011;9688;51.906;8.376;2022-09-09T11:43:31;2.10;;;0.90;;
19111;SDS011;9688;51.906;8.376;2022-09-09T11:46:43;2.53;;;1.25;;
19111;SDS011;9688;51.906;8.376;2022-09-09T11:49:53;3.40;;;1.10;;
19111;SDS011;9688;51.906;8.376;2022-09-09T11:53:14;4.90;;;1.37;;
19111;SDS011;9688;51.906;8.376;2022-09-09T11:56:25;3.03;;;1.33;;
19111;SDS011;9688;51.906;8.376;2022-09-09T11:59:35;2.87;;;1.20;;
19111;SDS011;9688;51.906;8.376;2022-09-09T12:02:47;3.08;;;1.75;;
19111;SDS011;9688;51.906;8.376;2022-09-09T12:05:53;3.13;;;1.02;;
19111;SDS011;9688;51.906;8.376;2022-09-09T12:09:05;3.20;;;0.90;;
19111;SDS011;9688;51.906;8.376;2022-09-09T12:12:27;2.50;;;1.13;;
19111;SDS011;9688;51.906;8.376;2022-09-09T12:15:34;3.88;;;1.08;;
19111;SDS011;9688;51.906;8.376;2022-09-09T12:18:50;3.97;;;1.30;;
19111;SDS011;9688;51.906;8.376;2022-09-09T12:21:58;4.18;;;1.15;;
19111;SDS011;9688;51.906;8.376;2022-09-09T12:25:18;5.13;;;1.60;;
19111;SDS011;9688;51.906;8.376;2022-09-09T12:28:39;2.80;;;0.93;;
19111;SDS011;9688;51.906;8.376;2022-09-09T12:31:51;3.63;;;1.25;;
19111;SDS011;9688;51.906;8.376;2022-09-09T12:35:00;5.57;;;1.30;;
19111;SDS011;9688;51.906;8.376;2022-09-09T12:38:11;7.00;;;1.20;;
19111;SDS011;9688;51.906;8.376;2022-09-09T12:41:23;3.17;;;1.07;;
19111;SDS011;9688;51.906;8.376;2022-09-09T12:44:31;4.80;;;1.35;;
19111;SDS011;9688;51.906;8.376;2022-09-09T12:47:40;1.67;;;1.08;;
19111;SDS011;9688;51.906;8.376;2022-09-09T12:50:50;2.78;;;1.10;;
19111;SDS011;9688;51.906;8.376;2022-09-09T12:53:59;2.97;;;1.20;;
19111;SDS011;9688;51.906;8.376;2022-09-09T12:57:04;1.95;;;0.93;;
19111;SDS011;9688;51.906;8.376;2022-09-09T13:00:12;6.00;;;1.45;;
19111;SDS011;9688;51.906;8.376;2022-09-09T13:03:22;1.67;;;0.90;;
19111;SDS011;9688;51.906;8.376;2022-09-09T13:06:30;4.05;;;1.58;;
19111;SDS011;9688;51.906;8.376;2022-09-09T13:09:39;5.63;;;1.20;;
19111;SDS011;9688;51.906;8.376;2022-09-09T13:12:51;2.03;;;1.15;;
19111;SDS011;9688;51.906;8.376;2022-09-09T13:15:58;2.22;;;1.00;;
19111;SDS011;9688;51.906;8.376;2022-09-09T13:19:08;2.53;;;1.30;;
19111;SDS011;9688;51.906;8.376;2022-09-09T13:22:19;2.10;;;1.20;;
19111;SDS011;9688;51.906;8.376;2022-09-09T13:25:26;1.60;;;1.20;;
19111;SDS011;9688;51.906;8.376;2022-09-09T13:28:32;2.63;;;0.90;;
19111;SDS011;9688;51.906;8.376;2022-09-09T13:31:38;1.73;;;0.98;;
19111;SDS011;9688;51.906;8.376;2022-09-09T13:34:51;1.08;;;0.80;;
19111;SDS011;9688;51.906;8.376;2022-09-09T13:37:56;1.13;;;0.85;;
19111;SDS011;9688;51.906;8.376;2022-09-09T13:41:03;2.55;;;0.65;;
19111;SDS011;9688;51.906;8.376;2022-09-09T13:44:14;1.63;;;0.95;;
19111;SDS011;9688;51.906;8.376;2022-09-09T13:47:30;3.03;;;1.40;;
19111;SDS011;9688;51.906;8.376;2022-09-09T13:50:40;4.70;;;0.98;;
19111;SDS011;9688;51.906;8.376;2022-09-09T13:53:48;1.73;;;1.05;;
19111;SDS011;9688;51.906;8.376;2022-09-09T13:57:01;1.85;;;1.02;;
19111;SDS011;9688;51.906;8.376;2022-09-09T14:00:10;3.58;;;0.95;;
19111;SDS011;9688;51.906;8.376;2022-09-09T14:03:21;2.60;;;0.90;;
19111;SDS011;9688;51.906;8.376;2022-09-09T14:06:28;3.45;;;1.45;;
19111;SDS011;9688;51.906;8.376;2022-09-09T14:09:35;2.80;;;1.30;;
19111;SDS011;9688;51.906;8.376;2022-09-09T14:12:40;4.43;;;0.95;;
19111;SDS011;9688;51.906;8.376;2022-09-09T14:15:46;2.25;;;1.10;;
19111;SDS011;9688;51.906;8.376;2022-09-09T14:18:53;1.33;;;1.17;;
19111;SDS011;9688;51.906;8.376;2022-09-09T14:22:01;1.55;;;1.05;;
19111;SDS011;9688;51.906;8.376;2022-09-09T14:25:07;0.73;;;0.60;;
19111;SDS011;9688;51.906;8.376;2022-09-09T14:28:15;2.17;;;0.77;;
19111;SDS011;9688;51.906;8.376;2022-09-09T14:31:23;4.43;;;1.30;;
19111;SDS011;9688;51.906;8.376;2022-09-09T14:34:30;2.43;;;1.00;;
19111;SDS011;9688;51.906;8.376;2022-09-09T14:37:36;5.18;;;1.10;;
19111;SDS011;9688;51.906;8.376;2022-09-09T14:40:44;3.35;;;1.00;;
19111;SDS011;9688;51.906;8.376;2022-09-09T14:43:50;2.37;;;0.83;;
19111;SDS011;9688;51.906;8.376;2022-09-09T14:46:56;1.63;;;0.80;;
19111;SDS011;9688;51.906;8.376;2022-09-09T14:50:05;1.43;;;0.97;;
19111;SDS011;9688;51.906;8.376;2022-09-09T14:53:12;3.92;;;0.90;;
19111;SDS011;9688;51.906;8.376;2022-09-09T14:56:17;1.77;;;1.20;;
19111;SDS011;9688;51.906;8.376;2022-09-09T14:59:25;1.47;;;1.10;;
19111;SDS011;9688;51.906;8.376;2022-09-09T15:02:29;2.20;;;0.93;;
19111;SDS011;9688;51.906;8.376;2022-09-09T15:05:36;2.97;;;1.05;;
19111;SDS011;9688;51.906;8.376;2022-09-09T15:08:43;1.00;;;0.90;;
19111;SDS011;9688;51.906;8.376;2022-09-09T15:11:48;4.53;;;1.03;;
19111;SDS011;9688;51.906;8.376;2022-09-09T15:14:53;2.63;;;1.00;;
19111;SDS011;9688;51.906;8.376;2022-09-09T15:17:58;4.43;;;1.07;;
19111;SDS011;9688;51.906;8.376;2022-09-09T15:21:03;1.15;;;1.10;;
19111;SDS011;9688;51.906;8.376;2022-09-09T15:24:11;2.72;;;1.20;;
19111;SDS011;9688;51.906;8.376;2022-09-09T15:27:16;3.90;;;1.00;;
19111;SDS011;9688;51.906;8.376;2022-09-09T15:30:21;1.57;;;1.10;;
19111;SDS011;9688;51.906;8.376;2022-09-09T15:33:26;1.57;;;1.30;;
19111;SDS011;9688;51.906;8.376;2022-09-09T15:36:32;3.73;;;1.40;;
19111;SDS011;9688;51.906;8.376;2022-09-09T15:39:40;2.77;;;1.40;;
19111;SDS011;9688;51.906;8.376;2022-09-09T15:42:45;1.63;;;1.30;;
19111;SDS011;9688;51.906;8.376;2022-09-09T15:45:51;1.90;;;1.10;;
19111;SDS011;9688;51.906;8.376;2022-09-09T15:49:03;2.23;;;1.30;;
19111;SDS011;9688;51.906;8.376;2022-09-09T15:52:09;2.53;;;0.97;;
19111;SDS011;9688;51.906;8.376;2022-09-09T15:55:18;1.23;;;1.10;;
19111;SDS011;9688;51.906;8.376;2022-09-09T15:58:25;3.00;;;1.53;;
19111;SDS011;9688;51.906;8.376;2022-09-09T16:01:36;2.43;;;0.93;;
19111;SDS011;9688;51.906;8.376;2022-09-09T16:04:44;6.77;;;1.17;;
19111;SDS011;9688;51.906;8.376;2022-09-09T16:07:49;1.37;;;1.23;;
19111;SDS011;9688;51.906;8.376;2022-09-09T16:10:58;1.97;;;1.00;;
19111;SDS011;9688;51.906;8.376;2022-09-09T16:14:08;3.50;;;1.80;;
19111;SDS011;9688;51.906;8.376;2022-09-09T16:17:13;2.88;;;1.20;;
19111;SDS011;9688;51.906;8.376;2022-09-09T16:20:19;4.17;;;1.80;;
19111;SDS011;9688;51.906;8.376;2022-09-09T16:23:25;1.40;;;1.10;;
19111;SDS011;9688;51.906;8.376;2022-09-09T16:26:32;1.20;;;1.10;;
19111;SDS011;9688;51.906;8.376;2022-09-09T16:29:38;6.17;;;2.50;;
19111;SDS011;9688;51.906;8.376;2022-09-09T16:32:43;1.80;;;1.47;;
19111;SDS011;9688;51.906;8.376;2022-09-09T16:35:49;4.13;;;1.80;;
19111;SDS011;9688;51.906;8.376;2022-09-09T16:38:55;4.40;;;1.70;;
19111;SDS011;9688;51.906;8.376;2022-09-09T16:42:03;7.27;;;2.43;;
19111;SDS011;9688;51.906;8.376;2022-09-09T16:45:08;6.30;;;1.70;;
19111;SDS011;9688;51.906;8.376;2022-09-09T16:48:13;3.30;;;1.87;;
19111;SDS011;9688;51.906;8.376;2022-09-09T16:51:19;5.70;;;1.90;;
19111;SDS011;9688;51.906;8.376;2022-09-09T16:54:26;2.43;;;1.27;;
19111;SDS011;9688;51.906;8.376;2022-09-09T16:57:33;3.03;;;1.40;;
19111;SDS011;9688;51.906;8.376;2022-09-09T17:00:38;5.03;;;2.60;;
19111;SDS011;9688;51.906;8.376;2022-09-09T17:03:43;2.40;;;1.10;;
19111;SDS011;9688;51.906;8.376;2022-09-09T17:06:50;1.03;;;1.00;;
19111;SDS011;9688;51.906;8.376;2022-09-09T17:09:57;2.00;;;1.23;;
19111;SDS011;9688;51.906;8.376;2022-09-09T17:13:06;2.97;;;1.23;;
19111;SDS011;9688;51.906;8.376;2022-09-09T17:16:13;2.07;;;1.20;;
19111;SDS011;9688;51.906;8.376;2022-09-09T17:19:20;3.30;;;1.70;;
19111;SDS011;9688;51.906;8.376;2022-09-09T17:22:27;4.00;;;2.10;;
19111;SDS011;9688;51.906;8.376;2022-09-09T17:25:32;1.70;;;1.60;;
19111;SDS011;9688;51.906;8.376;2022-09-09T17:28:39;3.27;;;2.10;;
19111;SDS011;9688;51.906;8.376;2022-09-09T17:31:44;4.07;;;1.90;;
19111;SDS011;9688;51.906;8.376;2022-09-09T17:34:49;3.53;;;1.47;;
19111;SDS011;9688;51.906;8.376;2022-09-09T17:37:55;4.43;;;2.13;;
19111;SDS011;9688;51.906;8.376;2022-09-09T17:41:00;2.47;;;1.90;;
19111;SDS011;9688;51.906;8.376;2022-09-09T17:44:07;2.60;;;1.40;;
19111;SDS011;9688;51.906;8.376;2022-09-09T17:47:12;1.90;;;1.60;;
19111;SDS011;9688;51.906;8.376;2022-09-09T17:50:16;3.10;;;1.20;;
19111;SDS011;9688;51.906;8.376;2022-09-09T17:53:21;5.07;;;1.60;;
19111;SDS011;9688;51.906;8.376;2022-09-09T17:56:26;2.60;;;1.20;;
19111;SDS011;9688;51.906;8.376;2022-09-09T17:59:34;5.07;;;2.47;;
19111;SDS011;9688;51.906;8.376;2022-09-09T18:02:39;7.67;;;3.20;;
19111;SDS011;9688;51.906;8.376;2022-09-09T18:05:44;7.57;;;3.90;;
19111;SDS011;9688;51.906;8.376;2022-09-09T18:08:50;6.30;;;3.87;;
19111;SDS011;9688;51.906;8.376;2022-09-09T18:11:57;8.90;;;3.90;;
19111;SDS011;9688;51.906;8.376;2022-09-09T18:15:04;6.63;;;3.80;;
19111;SDS011;9688;51.906;8.376;2022-09-09T18:18:09;6.10;;;2.60;;
19111;SDS011;9688;51.906;8.376;2022-09-09T18:21:14;1.90;;;1.30;;
19111;SDS011;9688;51.906;8.376;2022-09-09T18:24:21;3.47;;;2.73;;
19111;SDS011;9688;51.906;8.376;2022-09-09T18:27:28;1.50;;;1.40;;
19111;SDS011;9688;51.906;8.376;2022-09-09T18:30:37;1.70;;;1.60;;
19111;SDS011;9688;51.906;8.376;2022-09-09T18:33:43;3.73;;;2.60;;
19111;SDS011;9688;51.906;8.376;2022-09-09T18:36:51;3.23;;;1.80;;
19111;SDS011;9688;51.906;8.376;2022-09-09T18:39:57;3.03;;;1.23;;
19111;SDS011;9688;51.906;8.376;2022-09-09T18:43:04;3.30;;;1.40;;
19111;SDS011;9688;51.906;8.376;2022-09-09T18:46:11;1.77;;;1.10;;
19111;SDS011;9688;51.906;8.376;2022-09-09T18:49:18;3.67;;;2.07;;
19111;SDS011;9688;51.906;8.376;2022-09-09T18:52:24;3.37;;;1.87;;
19111;SDS011;9688;51.906;8.376;2022-09-09T18:55:28;2.10;;;1.43;;
19111;SDS011;9688;51.906;8.376;2022-09-09T18:58:35;3.70;;;2.13;;
19111;SDS011;9688;51.906;8.376;2022-09-09T19:01:41;2.20;;;1.73;;
19111;SDS011;9688;51.906;8.376;2022-09-09T19:04:46;3.63;;;1.47;;
19111;SDS011;9688;51.906;8.376;2022-09-09T19:07:52;2.17;;;1.40;;
19111;SDS011;9688;51.906;8.376;2022-09-09T19:10:59;2.90;;;1.50;;
19111;SDS011;9688;51.906;8.376;2022-09-09T19:14:04;2.93;;;1.83;;
19111;SDS011;9688;51.906;8.376;2022-09-09T19:17:13;2.70;;;1.40;;
19111;SDS011;9688;51.906;8.376;2022-09-09T19:20:18;3.33;;;1.33;;
19111;SDS011;9688;51.906;8.376;2022-09-09T19:23:25;4.17;;;1.50;;
19111;SDS011;9688;51.906;8.376;2022-09-09T19:26:35;1.93;;;1.47;;
19111;SDS011;9688;51.906;8.376;2022-09-09T19:29:42;1.30;;;1.20;;